Time;durP1;ratioP1;P1;durP2;ratioP2;P2;SDS_P1;SDS_P2;PMS_P1;PMS_P2;Temp;Humidity;BMP_temperature;BMP_pressure;BME280_temperature;BME280_humidity;BME280_pressure;Samples;Min_cycle;Max_cycle;Signal;HPM_P1;HPM_P2
2020/12/19 00:00:15;;;;;;;22.37;8.20;;;;;;;;;;5013704;28;21086;-75
2020/12/19 00:03:20;;;;;;;19.67;8.87;;;;;;;;;;5000820;28;20628;-76
2020/12/19 00:06:25;;;;;;;17.90;8.87;;;;;;;;;;4979060;28;20875;-74
2020/12/19 00:09:29;;;;;;;24.73;9.13;;;;;;;;;;5013431;28;20545;-74
2020/12/19 00:12:33;;;;;;;16.63;7.73;;;;;;;;;;5013066;28;20612;-74
2020/12/19 00:15:38;;;;;;;27.80;9.23;;;;;;;;;;4974314;28;20527;-75
2020/12/19 00:18:43;;;;;;;26.97;8.83;;;;;;;;;;4974051;28;20546;-76
2020/12/19 00:21:47;;;;;;;13.40;8.33;;;;;;;;;;4974158;28;20621;-75
2020/12/19 00:24:52;;;;;;;23.53;8.20;;;;;;;;;;4962186;28;20538;-75
2020/12/19 00:27:56;;;;;;;15.23;8.40;;;;;;;;;;5002858;28;20593;-75
2020/12/19 00:30:59;;;;;;;16.63;7.87;;;;;;;;;;5001315;28;20616;-75
2020/12/19 00:34:06;;;;;;;10.70;7.43;;;;;;;;;;5001244;28;20592;-75
2020/12/19 00:37:10;;;;;;;12.77;7.37;;;;;;;;;;4993052;28;20597;-75
2020/12/19 00:40:14;;;;;;;13.43;6.50;;;;;;;;;;4998381;28;20592;-75
2020/12/19 00:43:18;;;;;;;9.00;6.47;;;;;;;;;;5016546;28;20596;-75
2020/12/19 00:46:23;;;;;;;13.53;7.27;;;;;;;;;;5013482;28;20971;-76
2020/12/19 00:49:27;;;;;;;14.80;7.67;;;;;;;;;;5006873;28;20584;-75
2020/12/19 00:52:32;;;;;;;18.63;7.80;;;;;;;;;;5004367;28;20647;-75
2020/12/19 00:55:36;;;;;;;37.03;7.60;;;;;;;;;;5001448;28;20944;-75
2020/12/19 00:58:40;;;;;;;9.23;6.80;;;;;;;;;;5004393;28;20619;-76
2020/12/19 01:01:45;;;;;;;25.40;7.50;;;;;;;;;;5015666;28;20623;-76
2020/12/19 01:04:49;;;;;;;21.10;8.40;;;;;;;;;;4965805;28;20875;-75
2020/12/19 01:07:53;;;;;;;10.83;7.43;;;;;;;;;;4991915;28;20600;-75
2020/12/19 01:10:57;;;;;;;17.83;7.90;;;;;;;;;;5004233;28;20623;-75
2020/12/19 01:14:02;;;;;;;30.30;7.00;;;;;;;;;;4996554;28;20644;-75
2020/12/19 01:17:06;;;;;;;19.90;7.30;;;;;;;;;;4984508;28;21178;-75
2020/12/19 01:20:10;;;;;;;15.43;7.70;;;;;;;;;;4996463;28;20553;-75
2020/12/19 01:23:14;;;;;;;15.77;7.30;;;;;;;;;;4991363;28;20607;-75
2020/12/19 01:26:18;;;;;;;11.60;7.03;;;;;;;;;;4996084;28;20597;-75
2020/12/19 01:29:22;;;;;;;11.23;7.07;;;;;;;;;;4997751;28;20589;-75
2020/12/19 01:32:27;;;;;;;21.20;6.80;;;;;;;;;;4999383;28;20636;-74
2020/12/19 01:35:31;;;;;;;36.73;6.77;;;;;;;;;;4989369;28;20625;-75
2020/12/19 01:38:36;;;;;;;28.73;7.97;;;;;;;;;;4984136;28;20553;-75
2020/12/19 01:41:40;;;;;;;13.97;8.03;;;;;;;;;;4984186;28;20625;-74
2020/12/19 01:44:44;;;;;;;39.57;7.80;;;;;;;;;;4976335;28;20535;-75
2020/12/19 01:47:48;;;;;;;12.20;7.10;;;;;;;;;;4981506;28;20589;-75
2020/12/19 01:50:53;;;;;;;10.10;6.97;;;;;;;;;;4972733;28;20629;-76
2020/12/19 01:53:57;;;;;;;11.73;7.60;;;;;;;;;;4998755;28;20976;-75
2020/12/19 01:57:02;;;;;;;10.47;7.40;;;;;;;;;;5015218;28;20557;-75
2020/12/19 02:00:06;;;;;;;11.97;7.13;;;;;;;;;;5015679;28;20876;-75
2020/12/19 02:03:10;;;;;;;10.70;6.97;;;;;;;;;;5005092;28;21198;-75
2020/12/19 02:06:16;;;;;;;24.23;7.97;;;;;;;;;;4984164;28;20534;-75
2020/12/19 02:09:23;;;;;;;16.03;7.80;;;;;;;;;;4983603;28;20621;-76
2020/12/19 02:12:27;;;;;;;14.67;7.33;;;;;;;;;;4987388;28;20643;-75
2020/12/19 02:15:46;;;;;;;21.17;7.57;;;;;;;;;;5015057;28;20644;-75
2020/12/19 02:18:50;;;;;;;20.50;7.40;;;;;;;;;;5015351;28;21062;-75
2020/12/19 02:21:55;;;;;;;27.20;6.90;;;;;;;;;;5003001;28;20628;-75
2020/12/19 02:24:59;;;;;;;12.07;7.37;;;;;;;;;;4964239;28;20543;-74
2020/12/19 02:28:05;;;;;;;11.87;7.77;;;;;;;;;;4979408;28;20588;-75
2020/12/19 02:31:09;;;;;;;17.60;7.40;;;;;;;;;;4993838;28;21005;-75
2020/12/19 02:34:13;;;;;;;11.87;8.10;;;;;;;;;;5012394;28;20620;-75
2020/12/19 02:37:17;;;;;;;7.63;6.20;;;;;;;;;;5014758;28;20885;-75
2020/12/19 02:40:22;;;;;;;9.63;7.00;;;;;;;;;;5014351;28;20541;-75
2020/12/19 02:43:26;;;;;;;8.90;6.30;;;;;;;;;;4989391;28;20593;-75
2020/12/19 02:46:30;;;;;;;10.07;6.93;;;;;;;;;;4983064;28;20541;-75
2020/12/19 02:49:34;;;;;;;9.90;6.33;;;;;;;;;;4983012;28;20542;-75
2020/12/19 02:52:39;;;;;;;11.70;6.43;;;;;;;;;;4988335;28;20635;-75
2020/12/19 02:55:43;;;;;;;9.37;6.23;;;;;;;;;;5012565;28;20640;-76
2020/12/19 02:58:47;;;;;;;9.30;6.20;;;;;;;;;;5002294;28;21079;-76
2020/12/19 03:01:51;;;;;;;10.30;6.53;;;;;;;;;;5012415;28;20644;-75
2020/12/19 03:04:55;;;;;;;8.00;5.93;;;;;;;;;;5013974;28;20541;-75
2020/12/19 03:07:59;;;;;;;9.43;6.37;;;;;;;;;;5002193;28;20877;-75
2020/12/19 03:11:04;;;;;;;8.33;6.13;;;;;;;;;;5007130;28;21254;-76
2020/12/19 03:14:08;;;;;;;10.63;6.30;;;;;;;;;;4974709;28;20586;-75
2020/12/19 03:17:12;;;;;;;9.23;6.70;;;;;;;;;;4962923;28;20903;-75
2020/12/19 03:20:16;;;;;;;7.23;5.70;;;;;;;;;;4988117;28;20590;-75
2020/12/19 03:23:21;;;;;;;21.63;6.87;;;;;;;;;;4996258;28;20588;-75
2020/12/19 03:26:25;;;;;;;10.03;6.80;;;;;;;;;;5006030;28;20581;-75
2020/12/19 03:29:29;;;;;;;9.77;6.93;;;;;;;;;;4994276;28;20550;-76
2020/12/19 03:32:33;;;;;;;12.20;6.40;;;;;;;;;;5007200;28;21245;-75
2020/12/19 03:35:39;;;;;;;8.83;6.40;;;;;;;;;;5013057;28;20644;-76
2020/12/19 03:38:43;;;;;;;7.60;6.00;;;;;;;;;;4994168;28;20542;-75
2020/12/19 03:41:48;;;;;;;8.73;5.93;;;;;;;;;;4993788;28;20649;-75
2020/12/19 03:44:52;;;;;;;8.07;5.80;;;;;;;;;;4982130;28;20534;-75
2020/12/19 03:47:56;;;;;;;12.13;5.80;;;;;;;;;;5012202;28;20620;-74
2020/12/19 03:51:00;;;;;;;8.70;6.27;;;;;;;;;;5013307;28;20640;-75
2020/12/19 03:54:04;;;;;;;8.20;5.90;;;;;;;;;;4962657;28;20539;-76
2020/12/19 03:57:09;;;;;;;8.70;6.23;;;;;;;;;;4998288;28;20608;-76
2020/12/19 04:00:13;;;;;;;10.03;6.10;;;;;;;;;;5001407;28;20541;-76
2020/12/19 04:03:17;;;;;;;10.77;6.37;;;;;;;;;;5013127;28;20616;-76
2020/12/19 04:06:22;;;;;;;11.50;5.83;;;;;;;;;;5007615;28;20613;-76
2020/12/19 04:09:26;;;;;;;23.70;6.07;;;;;;;;;;4993542;28;20597;-76
2020/12/19 04:12:30;;;;;;;27.80;6.87;;;;;;;;;;4997521;28;20993;-76
2020/12/19 04:15:35;;;;;;;25.23;6.40;;;;;;;;;;4999342;28;20625;-76
2020/12/19 04:18:39;;;;;;;10.07;6.33;;;;;;;;;;4985477;28;20604;-76
2020/12/19 04:21:43;;;;;;;9.23;6.20;;;;;;;;;;4997275;28;20988;-75
2020/12/19 04:24:47;;;;;;;12.80;6.67;;;;;;;;;;4972373;28;20967;-75
2020/12/19 04:27:51;;;;;;;9.27;6.93;;;;;;;;;;5003005;28;20592;-75
2020/12/19 04:30:56;;;;;;;11.27;6.53;;;;;;;;;;5015425;28;20647;-76
2020/12/19 04:34:00;;;;;;;11.40;6.43;;;;;;;;;;5005259;28;20540;-76
2020/12/19 04:37:04;;;;;;;19.67;6.40;;;;;;;;;;5005175;28;20877;-73
2020/12/19 04:40:08;;;;;;;8.43;5.80;;;;;;;;;;5005252;28;21146;-73
2020/12/19 04:43:18;;;;;;;9.37;5.70;;;;;;;;;;4997221;28;20601;-75
2020/12/19 04:46:24;;;;;;;16.43;6.40;;;;;;;;;;5012737;28;21134;-75
2020/12/19 04:49:29;;;;;;;9.03;6.60;;;;;;;;;;5009377;28;20593;-75
2020/12/19 04:52:33;;;;;;;13.73;6.87;;;;;;;;;;4997010;28;20616;-75
2020/12/19 04:55:37;;;;;;;8.13;5.97;;;;;;;;;;4985143;28;20965;-75
2020/12/19 04:58:41;;;;;;;11.77;7.10;;;;;;;;;;4997002;28;21096;-75
2020/12/19 05:01:45;;;;;;;21.23;7.10;;;;;;;;;;4996805;28;20625;-75
2020/12/19 05:04:49;;;;;;;14.40;7.63;;;;;;;;;;5015857;22;20676;-74
2020/12/19 05:07:53;;;;;;;17.43;6.73;;;;;;;;;;4996611;28;20877;-73
2020/12/19 05:10:58;;;;;;;13.97;6.67;;;;;;;;;;5002087;28;20644;-73
2020/12/19 05:14:06;;;;;;;20.30;6.70;;;;;;;;;;5016053;28;20537;-74
2020/12/19 05:17:10;;;;;;;18.87;6.83;;;;;;;;;;5003087;28;20581;-74
2020/12/19 05:20:15;;;;;;;25.40;7.63;;;;;;;;;;5002792;28;20620;-74
2020/12/19 05:23:19;;;;;;;16.87;7.87;;;;;;;;;;4991074;28;20620;-74
2020/12/19 05:26:23;;;;;;;14.47;8.67;;;;;;;;;;4995562;28;21072;-74
2020/12/19 05:29:27;;;;;;;11.63;7.80;;;;;;;;;;4996208;28;20542;-74
2020/12/19 05:32:34;;;;;;;14.47;8.43;;;;;;;;;;4996221;28;20621;-73
2020/12/19 05:35:39;;;;;;;18.03;8.83;;;;;;;;;;4996233;28;20648;-74
2020/12/19 05:38:43;;;;;;;13.37;8.07;;;;;;;;;;4994638;28;20581;-74
2020/12/19 05:41:48;;;;;;;20.30;8.23;;;;;;;;;;4995542;28;20648;-74
2020/12/19 05:44:52;;;;;;;15.17;8.40;;;;;;;;;;4996187;28;20538;-74
2020/12/19 05:47:56;;;;;;;21.93;8.97;;;;;;;;;;5010198;28;20928;-74
2020/12/19 05:51:01;;;;;;;22.37;9.47;;;;;;;;;;5003334;28;20971;-74
2020/12/19 05:54:10;;;;;;;14.77;9.03;;;;;;;;;;5015768;28;20552;-74
2020/12/19 05:57:16;;;;;;;18.87;8.73;;;;;;;;;;5013654;28;20921;-73
2020/12/19 06:00:20;;;;;;;30.70;8.80;;;;;;;;;;5015339;28;20932;-74
2020/12/19 06:03:25;;;;;;;20.80;10.13;;;;;;;;;;5003270;28;20596;-74
2020/12/19 06:06:31;;;;;;;13.47;9.33;;;;;;;;;;5008337;28;20628;-74
2020/12/19 06:09:36;;;;;;;21.27;7.87;;;;;;;;;;4995442;28;20600;-74
2020/12/19 06:12:55;;;;;;;27.83;8.50;;;;;;;;;;4995342;28;20617;-74
2020/12/19 06:16:11;;;;;;;18.20;7.63;;;;;;;;;;4995231;28;20645;-74
2020/12/19 06:19:23;;;;;;;13.03;8.60;;;;;;;;;;5005169;28;20585;-73
2020/12/19 06:22:30;;;;;;;17.73;8.27;;;;;;;;;;4997959;28;20993;-74
2020/12/19 06:25:41;;;;;;;16.90;8.33;;;;;;;;;;4983487;28;20542;-74
2020/12/19 06:28:47;;;;;;;20.13;8.57;;;;;;;;;;4995638;28;20537;-74
2020/12/19 06:31:59;;;;;;;31.47;8.03;;;;;;;;;;4983228;28;20645;-74
2020/12/19 06:35:11;;;;;;;13.93;8.03;;;;;;;;;;4983215;28;20542;-73
2020/12/19 06:38:39;;;;;;;29.43;8.30;;;;;;;;;;4981962;28;20597;-74
2020/12/19 06:41:58;;;;;;;15.33;8.47;;;;;;;;;;4972091;28;20625;-74
2020/12/19 06:45:34;;;;;;;18.83;8.03;;;;;;;;;;4975559;28;20594;-74
2020/12/19 06:48:38;;;;;;;18.43;8.37;;;;;;;;;;4979558;28;20612;-74
2020/12/19 06:52:12;;;;;;;30.17;9.57;;;;;;;;;;5002339;28;20959;-74
2020/12/19 06:55:27;;;;;;;24.67;8.97;;;;;;;;;;5002254;28;20600;-74
2020/12/19 06:58:33;;;;;;;14.87;9.40;;;;;;;;;;5001161;28;20968;-74
2020/12/19 07:01:37;;;;;;;17.90;9.33;;;;;;;;;;4988379;28;20652;-74
2020/12/19 07:04:42;;;;;;;13.67;8.83;;;;;;;;;;5014429;28;20600;-74
2020/12/19 07:07:47;;;;;;;14.07;9.10;;;;;;;;;;5014295;28;20545;-74
2020/12/19 07:10:51;;;;;;;15.00;9.10;;;;;;;;;;5014149;28;20627;-74
2020/12/19 07:13:57;;;;;;;24.43;9.77;;;;;;;;;;4998851;28;20589;-74
2020/12/19 07:17:17;;;;;;;13.73;8.77;;;;;;;;;;4975333;28;20582;-74
2020/12/19 07:20:22;;;;;;;13.90;9.40;;;;;;;;;;4975220;28;20547;-74
2020/12/19 07:23:31;;;;;;;14.37;8.60;;;;;;;;;;4974769;28;20601;-74
2020/12/19 07:26:35;;;;;;;15.10;9.17;;;;;;;;;;4974829;28;20558;-74
2020/12/19 07:29:39;;;;;;;17.20;10.07;;;;;;;;;;4988996;28;20593;-74
2020/12/19 07:32:44;;;;;;;20.13;9.40;;;;;;;;;;4981990;28;20597;-74
2020/12/19 07:35:49;;;;;;;19.33;9.63;;;;;;;;;;4974679;28;20642;-73
2020/12/19 07:38:59;;;;;;;14.57;8.80;;;;;;;;;;4962751;28;20547;-73
2020/12/19 07:42:09;;;;;;;16.37;8.07;;;;;;;;;;4974702;28;20638;-74
2020/12/19 07:45:16;;;;;;;18.03;9.00;;;;;;;;;;4962689;28;20547;-73
2020/12/19 07:48:20;;;;;;;19.80;8.90;;;;;;;;;;4951540;28;21160;-73
2020/12/19 07:51:24;;;;;;;27.50;11.20;;;;;;;;;;4974339;28;20633;-74
2020/12/19 07:54:28;;;;;;;21.20;11.53;;;;;;;;;;4988630;28;20587;-74
2020/12/19 07:57:33;;;;;;;18.40;11.03;;;;;;;;;;5001283;28;20604;-74
2020/12/19 08:00:37;;;;;;;21.60;10.60;;;;;;;;;;4980363;28;20649;-74
2020/12/19 08:03:42;;;;;;;24.37;11.53;;;;;;;;;;5002973;28;20589;-74
2020/12/19 08:06:47;;;;;;;15.83;10.00;;;;;;;;;;4974333;28;20876;-74
2020/12/19 08:10:05;;;;;;;20.27;12.00;;;;;;;;;;5002706;28;20589;-73
2020/12/19 08:13:10;;;;;;;17.50;10.90;;;;;;;;;;4994011;28;20611;-73
2020/12/19 08:16:14;;;;;;;20.37;9.53;;;;;;;;;;4993339;28;20629;-74
2020/12/19 08:19:26;;;;;;;21.47;13.67;;;;;;;;;;4971619;28;21206;-74
2020/12/19 08:22:32;;;;;;;22.87;11.30;;;;;;;;;;4992911;28;20641;-74
2020/12/19 08:25:37;;;;;;;17.07;10.40;;;;;;;;;;4991818;28;20627;-74
2020/12/19 08:28:41;;;;;;;18.70;10.20;;;;;;;;;;5010985;28;20596;-74
2020/12/19 08:31:52;;;;;;;18.20;12.47;;;;;;;;;;4993816;28;20965;-74
2020/12/19 08:34:56;;;;;;;21.83;11.20;;;;;;;;;;4993699;28;20549;-74
2020/12/19 08:38:08;;;;;;;18.10;9.60;;;;;;;;;;4979522;28;20663;-74
2020/12/19 08:41:20;;;;;;;13.50;8.87;;;;;;;;;;4998388;28;20643;-74
2020/12/19 08:44:30;;;;;;;26.47;8.83;;;;;;;;;;4983106;28;21065;-74
2020/12/19 08:47:34;;;;;;;14.03;7.40;;;;;;;;;;4997747;28;20591;-74
2020/12/19 08:50:42;;;;;;;12.10;7.73;;;;;;;;;;5014545;28;20651;-74
2020/12/19 08:53:46;;;;;;;13.57;7.30;;;;;;;;;;5014688;28;20588;-73
2020/12/19 08:56:51;;;;;;;18.20;8.50;;;;;;;;;;5020956;28;20939;-74
2020/12/19 09:00:13;;;;;;;11.63;8.43;;;;;;;;;;4998580;28;20591;-73
2020/12/19 09:03:25;;;;;;;10.90;8.00;;;;;;;;;;5037281;28;20560;-74
2020/12/19 09:06:30;;;;;;;12.70;8.40;;;;;;;;;;5000725;28;20975;-74
2020/12/19 09:09:34;;;;;;;12.33;8.20;;;;;;;;;;5004817;28;20591;-73
2020/12/19 09:12:38;;;;;;;14.37;7.80;;;;;;;;;;5024638;28;20615;-74
2020/12/19 09:15:44;;;;;;;11.43;7.83;;;;;;;;;;5024283;28;20544;-74
2020/12/19 09:18:48;;;;;;;19.30;7.90;;;;;;;;;;5023896;28;20552;-74
2020/12/19 09:21:58;;;;;;;12.10;7.30;;;;;;;;;;5003609;28;20643;-74
2020/12/19 09:25:02;;;;;;;16.97;7.37;;;;;;;;;;5011546;28;20591;-73
2020/12/19 09:28:07;;;;;;;14.10;7.90;;;;;;;;;;5013578;28;20528;-74
2020/12/19 09:31:10;;;;;;;11.30;7.93;;;;;;;;;;5035545;28;20639;-74
2020/12/19 09:34:15;;;;;;;16.80;9.27;;;;;;;;;;5031954;28;20588;-74
2020/12/19 09:37:19;;;;;;;11.53;7.73;;;;;;;;;;5015971;28;20584;-74
2020/12/19 09:40:23;;;;;;;11.90;7.70;;;;;;;;;;4997159;28;21080;-74
2020/12/19 09:43:27;;;;;;;15.93;9.03;;;;;;;;;;4985057;28;20550;-73
2020/12/19 09:46:32;;;;;;;14.80;8.70;;;;;;;;;;5019357;28;21160;-75
2020/12/19 09:49:36;;;;;;;12.67;8.70;;;;;;;;;;5019176;28;20592;-73
2020/12/19 09:52:41;;;;;;;12.60;8.07;;;;;;;;;;5015965;28;20624;-74
2020/12/19 09:55:45;;;;;;;11.00;7.60;;;;;;;;;;4992982;28;20557;-74
2020/12/19 09:58:49;;;;;;;10.70;7.73;;;;;;;;;;5015869;28;20537;-74
2020/12/19 10:01:53;;;;;;;10.03;7.63;;;;;;;;;;5015568;28;20644;-74
2020/12/19 10:04:57;;;;;;;12.97;7.53;;;;;;;;;;5015934;28;20612;-74
2020/12/19 10:08:02;;;;;;;10.23;6.77;;;;;;;;;;5005847;28;20580;-73
2020/12/19 10:11:07;;;;;;;10.73;7.07;;;;;;;;;;5035804;28;20626;-74
2020/12/19 10:14:11;;;;;;;11.77;7.40;;;;;;;;;;5023617;28;21066;-74
2020/12/19 10:17:15;;;;;;;13.50;8.83;;;;;;;;;;5023739;28;20607;-73
2020/12/19 10:20:19;;;;;;;11.03;7.90;;;;;;;;;;5020140;28;20600;-73
2020/12/19 10:23:24;;;;;;;11.57;8.30;;;;;;;;;;5015885;28;20881;-73
2020/12/19 10:26:28;;;;;;;12.67;8.67;;;;;;;;;;5009022;28;20704;-73
2020/12/19 10:29:32;;;;;;;13.20;9.37;;;;;;;;;;5015349;28;20545;-74
2020/12/19 10:32:36;;;;;;;13.90;8.80;;;;;;;;;;5015352;28;20623;-74
2020/12/19 10:35:40;;;;;;;12.00;7.97;;;;;;;;;;5015212;28;20545;-73
2020/12/19 10:38:44;;;;;;;12.90;8.27;;;;;;;;;;4998866;28;20585;-73
2020/12/19 10:41:49;;;;;;;11.40;7.97;;;;;;;;;;5014751;28;21237;-74
2020/12/19 10:44:53;;;;;;;11.47;8.30;;;;;;;;;;5015583;28;21071;-74
2020/12/19 10:47:57;;;;;;;11.23;8.23;;;;;;;;;;5022150;28;20583;-73
2020/12/19 10:51:01;;;;;;;11.93;8.20;;;;;;;;;;5035045;28;20619;-74
2020/12/19 10:54:06;;;;;;;12.63;7.67;;;;;;;;;;5027076;28;21157;-74
2020/12/19 10:57:10;;;;;;;13.03;8.17;;;;;;;;;;5022080;28;20623;-74
2020/12/19 11:00:23;;;;;;;13.73;9.20;;;;;;;;;;5023417;28;20588;-74
2020/12/19 11:03:30;;;;;;;12.83;8.80;;;;;;;;;;5003751;28;20572;-74
2020/12/19 11:06:34;;;;;;;13.80;8.57;;;;;;;;;;5019902;28;21149;-74
2020/12/19 11:09:38;;;;;;;13.60;8.77;;;;;;;;;;5025050;28;20604;-74
2020/12/19 11:12:42;;;;;;;13.07;8.30;;;;;;;;;;5022296;28;21184;-74
2020/12/19 11:15:47;;;;;;;13.00;8.33;;;;;;;;;;5021767;28;20618;-74
2020/12/19 11:18:51;;;;;;;12.00;8.47;;;;;;;;;;5022275;28;20591;-75
2020/12/19 11:21:56;;;;;;;21.20;8.83;;;;;;;;;;5022179;28;20615;-74
2020/12/19 11:24:59;;;;;;;11.87;8.17;;;;;;;;;;5021967;28;20576;-74
2020/12/19 11:28:05;;;;;;;18.87;8.63;;;;;;;;;;5014446;28;20585;-74
2020/12/19 11:31:09;;;;;;;12.00;8.37;;;;;;;;;;5032758;28;20983;-74
2020/12/19 11:34:13;;;;;;;16.03;9.70;;;;;;;;;;5011642;28;20592;-74
2020/12/19 11:37:17;;;;;;;13.83;8.67;;;;;;;;;;5002505;28;20632;-74
2020/12/19 11:40:21;;;;;;;13.50;8.53;;;;;;;;;;5013914;28;20596;-74
2020/12/19 11:43:25;;;;;;;13.30;7.93;;;;;;;;;;4992304;28;20592;-74
2020/12/19 11:46:30;;;;;;;12.47;8.57;;;;;;;;;;5014944;28;20864;-74
2020/12/19 11:49:34;;;;;;;21.17;8.93;;;;;;;;;;5014484;28;20576;-74
2020/12/19 11:52:38;;;;;;;15.53;9.23;;;;;;;;;;5002161;28;20648;-74
2020/12/19 11:55:42;;;;;;;15.27;9.00;;;;;;;;;;5008259;28;20592;-75
2020/12/19 11:58:46;;;;;;;12.53;8.53;;;;;;;;;;5002126;28;20631;-74
2020/12/19 12:01:50;;;;;;;14.73;7.97;;;;;;;;;;5002547;28;20648;-73
2020/12/19 12:04:55;;;;;;;11.53;7.57;;;;;;;;;;4985531;28;20612;-74
2020/12/19 12:07:59;;;;;;;13.20;7.93;;;;;;;;;;5013657;28;20577;-73
2020/12/19 12:11:03;;;;;;;14.47;9.57;;;;;;;;;;4991630;28;20647;-75
2020/12/19 12:14:07;;;;;;;18.70;9.67;;;;;;;;;;5004721;28;20592;-74
2020/12/19 12:17:12;;;;;;;18.57;10.53;;;;;;;;;;5000070;28;20603;-74
2020/12/19 12:20:17;;;;;;;16.50;7.93;;;;;;;;;;4983312;28;20921;-74
2020/12/19 12:23:21;;;;;;;9.80;7.10;;;;;;;;;;5003582;28;20599;-74
2020/12/19 12:26:25;;;;;;;10.40;7.50;;;;;;;;;;5014480;28;21158;-74
2020/12/19 12:29:29;;;;;;;12.47;7.30;;;;;;;;;;5029551;28;20587;-74
2020/12/19 12:32:33;;;;;;;9.60;6.60;;;;;;;;;;5017763;28;20642;-74
2020/12/19 12:35:38;;;;;;;10.73;7.00;;;;;;;;;;5013322;28;20588;-75
2020/12/19 12:38:42;;;;;;;9.23;6.57;;;;;;;;;;5005970;28;20588;-75
2020/12/19 12:41:46;;;;;;;15.73;7.67;;;;;;;;;;5017388;28;20620;-74
2020/12/19 12:44:51;;;;;;;10.10;6.90;;;;;;;;;;5018030;28;20545;-74
2020/12/19 12:47:55;;;;;;;9.57;6.33;;;;;;;;;;5006571;28;20549;-74
2020/12/19 12:50:59;;;;;;;9.63;7.37;;;;;;;;;;5018669;28;20620;-74
2020/12/19 12:54:04;;;;;;;11.53;8.10;;;;;;;;;;5005515;28;20540;-74
2020/12/19 12:57:08;;;;;;;11.13;7.80;;;;;;;;;;4983492;28;20612;-74
2020/12/19 13:00:12;;;;;;;11.03;7.63;;;;;;;;;;4994499;28;20540;-74
2020/12/19 13:03:16;;;;;;;10.10;7.80;;;;;;;;;;4994367;28;20557;-75
2020/12/19 13:06:21;;;;;;;20.20;7.87;;;;;;;;;;5017032;28;20603;-74
2020/12/19 13:09:25;;;;;;;10.60;7.63;;;;;;;;;;5017308;28;20541;-74
2020/12/19 13:12:30;;;;;;;12.33;8.20;;;;;;;;;;5005081;28;20611;-74
2020/12/19 13:15:35;;;;;;;11.07;7.83;;;;;;;;;;5004786;28;20549;-74
2020/12/19 13:18:40;;;;;;;12.27;8.30;;;;;;;;;;5004733;28;20597;-75
2020/12/19 13:21:46;;;;;;;13.20;8.50;;;;;;;;;;5004713;28;20624;-75
2020/12/19 13:24:50;;;;;;;13.67;9.20;;;;;;;;;;5028265;28;21149;-75
2020/12/19 13:27:55;;;;;;;12.53;8.77;;;;;;;;;;5011607;28;20587;-74
2020/12/19 13:31:00;;;;;;;15.27;8.33;;;;;;;;;;5037046;28;20623;-74
2020/12/19 13:34:04;;;;;;;27.17;14.80;;;;;;;;;;5000096;28;20591;-74
2020/12/19 13:37:08;;;;;;;21.53;12.93;;;;;;;;;;5036934;28;20602;-74
2020/12/19 13:40:14;;;;;;;16.07;10.23;;;;;;;;;;5036776;28;20591;-73
2020/12/19 13:43:18;;;;;;;12.37;9.13;;;;;;;;;;5001098;28;20588;-73
2020/12/19 13:46:23;;;;;;;12.73;8.60;;;;;;;;;;5025119;28;20895;-74
2020/12/19 13:49:27;;;;;;;11.57;7.93;;;;;;;;;;5008623;28;20924;-74
2020/12/19 13:52:31;;;;;;;10.47;7.67;;;;;;;;;;5029312;28;20643;-74
2020/12/19 13:55:36;;;;;;;10.47;7.53;;;;;;;;;;5037322;28;20540;-74
2020/12/19 13:58:41;;;;;;;10.30;7.47;;;;;;;;;;5018536;28;20632;-74
2020/12/19 14:01:45;;;;;;;10.90;8.20;;;;;;;;;;5015836;28;20627;-74
2020/12/19 14:04:49;;;;;;;12.47;7.77;;;;;;;;;;5016798;28;20968;-75
2020/12/19 14:07:53;;;;;;;12.13;8.00;;;;;;;;;;5016506;28;20544;-74
2020/12/19 14:10:57;;;;;;;11.07;7.90;;;;;;;;;;5029678;28;21228;-73
2020/12/19 14:14:05;;;;;;;9.63;7.10;;;;;;;;;;5024080;28;20935;-73
2020/12/19 14:17:10;;;;;;;14.27;7.90;;;;;;;;;;5003768;28;20624;-74
2020/12/19 14:20:14;;;;;;;11.73;7.77;;;;;;;;;;5017012;28;20541;-74
2020/12/19 14:23:18;;;;;;;13.07;8.93;;;;;;;;;;5004311;28;20561;-75
2020/12/19 14:26:26;;;;;;;15.10;10.33;;;;;;;;;;5016744;28;21090;-74
2020/12/19 14:29:30;;;;;;;13.60;9.13;;;;;;;;;;4996372;28;21072;-74
2020/12/19 14:32:34;;;;;;;16.53;8.77;;;;;;;;;;5000900;28;20639;-75
2020/12/19 14:35:39;;;;;;;20.77;9.50;;;;;;;;;;5035634;28;20539;-74
2020/12/19 14:38:44;;;;;;;22.70;9.57;;;;;;;;;;4995954;28;20605;-74
2020/12/19 14:41:48;;;;;;;16.93;9.47;;;;;;;;;;5006959;28;20643;-73
2020/12/19 14:44:52;;;;;;;17.80;9.47;;;;;;;;;;5012522;28;20540;-74
2020/12/19 14:47:56;;;;;;;17.77;10.20;;;;;;;;;;5022123;28;20589;-74
2020/12/19 14:51:00;;;;;;;15.47;9.30;;;;;;;;;;5015613;28;20630;-73
2020/12/19 14:54:04;;;;;;;20.50;9.57;;;;;;;;;;4996430;28;20874;-74
2020/12/19 14:57:09;;;;;;;20.83;9.13;;;;;;;;;;4983847;28;21111;-74
2020/12/19 15:00:14;;;;;;;17.17;9.53;;;;;;;;;;4983180;28;20688;-74
2020/12/19 15:03:18;;;;;;;14.87;9.03;;;;;;;;;;5013219;28;21182;-73
2020/12/19 15:06:22;;;;;;;24.80;9.17;;;;;;;;;;5002264;28;20632;-73
2020/12/19 15:09:27;;;;;;;19.07;9.80;;;;;;;;;;5015599;28;20939;-74
2020/12/19 15:12:31;;;;;;;19.97;9.20;;;;;;;;;;5002994;28;21170;-74
2020/12/19 15:15:36;;;;;;;18.07;9.00;;;;;;;;;;5028960;28;20615;-73
2020/12/19 15:18:40;;;;;;;33.63;9.83;;;;;;;;;;5033748;28;20650;-74
2020/12/19 15:21:44;;;;;;;48.17;10.83;;;;;;;;;;5021649;28;20647;-73
2020/12/19 15:24:48;;;;;;;25.77;10.20;;;;;;;;;;5009074;28;20623;-74
2020/12/19 15:27:52;;;;;;;17.30;9.90;;;;;;;;;;5021382;28;20592;-75
2020/12/19 15:30:57;;;;;;;20.40;10.30;;;;;;;;;;5012960;28;20648;-74
2020/12/19 15:34:01;;;;;;;17.07;11.07;;;;;;;;;;5019046;28;20585;-74
2020/12/19 15:37:05;;;;;;;22.83;11.57;;;;;;;;;;5014201;28;20549;-74
2020/12/19 15:40:10;;;;;;;22.53;10.37;;;;;;;;;;5014123;28;20612;-74
2020/12/19 15:43:14;;;;;;;24.93;11.47;;;;;;;;;;5015015;28;21179;-74
2020/12/19 15:46:18;;;;;;;45.13;11.73;;;;;;;;;;5015167;28;20545;-74
2020/12/19 15:49:23;;;;;;;46.67;12.07;;;;;;;;;;5028751;23;21633;-75
2020/12/19 15:52:27;;;;;;;17.33;10.33;;;;;;;;;;5014451;28;20659;-75
2020/12/19 15:55:30;;;;;;;29.30;11.30;;;;;;;;;;5013319;28;20943;-76
2020/12/19 15:58:34;;;;;;;19.67;11.27;;;;;;;;;;5001463;28;20592;-75
2020/12/19 16:01:40;;;;;;;18.47;9.23;;;;;;;;;;5013612;28;20623;-76
2020/12/19 16:04:44;;;;;;;38.50;10.37;;;;;;;;;;5014637;28;20627;-74
2020/12/19 16:07:48;;;;;;;33.97;10.03;;;;;;;;;;5020348;28;20623;-75
2020/12/19 16:10:52;;;;;;;15.93;9.80;;;;;;;;;;5022431;28;20670;-75
2020/12/19 16:13:56;;;;;;;24.50;12.87;;;;;;;;;;5037743;28;20939;-75
2020/12/19 16:17:00;;;;;;;29.33;10.30;;;;;;;;;;5025417;28;20599;-74
2020/12/19 16:20:04;;;;;;;19.33;9.43;;;;;;;;;;5014132;28;20986;-76
2020/12/19 16:23:08;;;;;;;34.83;9.97;;;;;;;;;;5014223;28;20595;-75
2020/12/19 16:26:12;;;;;;;24.10;9.80;;;;;;;;;;5025415;28;21149;-75
2020/12/19 16:29:17;;;;;;;72.60;10.53;;;;;;;;;;5038071;28;20576;-75
2020/12/19 16:32:22;;;;;;;23.43;8.97;;;;;;;;;;5037395;28;21214;-75
2020/12/19 16:35:26;;;;;;;24.23;9.17;;;;;;;;;;5036369;28;20619;-74
2020/12/19 16:38:30;;;;;;;17.53;10.00;;;;;;;;;;5036148;28;20999;-74
2020/12/19 16:41:35;;;;;;;20.53;9.93;;;;;;;;;;5036784;28;20627;-75
2020/12/19 16:44:39;;;;;;;33.60;10.60;;;;;;;;;;4993497;28;21075;-74
2020/12/19 16:47:43;;;;;;;24.10;11.23;;;;;;;;;;5016599;28;20622;-75
2020/12/19 16:50:47;;;;;;;20.43;10.30;;;;;;;;;;5015961;28;20651;-75
2020/12/19 16:53:52;;;;;;;22.00;11.03;;;;;;;;;;5036304;28;20595;-75
2020/12/19 16:56:56;;;;;;;30.00;16.43;;;;;;;;;;5018324;28;21146;-75
2020/12/19 17:00:00;;;;;;;19.20;9.60;;;;;;;;;;5036207;28;20631;-76
2020/12/19 17:03:04;;;;;;;16.37;9.03;;;;;;;;;;5037208;28;20607;-75
2020/12/19 17:06:09;;;;;;;16.10;9.80;;;;;;;;;;5023383;28;20662;-74
2020/12/19 17:09:13;;;;;;;19.10;10.00;;;;;;;;;;5036136;28;20931;-74
2020/12/19 17:12:17;;;;;;;17.70;9.97;;;;;;;;;;5023026;28;20643;-74
2020/12/19 17:15:21;;;;;;;14.27;9.57;;;;;;;;;;5031038;28;21152;-76
2020/12/19 17:18:26;;;;;;;18.80;10.10;;;;;;;;;;5035416;28;20588;-74
2020/12/19 17:21:33;;;;;;;18.67;10.67;;;;;;;;;;5023271;28;20627;-74
2020/12/19 17:24:37;;;;;;;18.00;9.63;;;;;;;;;;5023651;28;21117;-74
2020/12/19 17:27:42;;;;;;;16.23;10.23;;;;;;;;;;5035276;28;20584;-74
2020/12/19 17:30:46;;;;;;;19.70;10.20;;;;;;;;;;5034908;28;21236;-74
2020/12/19 17:33:51;;;;;;;17.77;9.87;;;;;;;;;;5034464;28;20615;-74
2020/12/19 17:36:55;;;;;;;16.30;10.00;;;;;;;;;;5023700;28;20587;-74
2020/12/19 17:40:00;;;;;;;21.23;10.07;;;;;;;;;;5004219;28;21010;-74
2020/12/19 17:43:05;;;;;;;25.97;11.03;;;;;;;;;;5023775;28;21141;-75
2020/12/19 17:46:09;;;;;;;17.23;10.67;;;;;;;;;;5022724;28;21173;-74
2020/12/19 17:49:13;;;;;;;16.07;9.73;;;;;;;;;;5034958;28;20583;-74
2020/12/19 17:52:17;;;;;;;18.97;11.60;;;;;;;;;;5023282;28;20651;-73
2020/12/19 17:55:22;;;;;;;19.37;10.87;;;;;;;;;;5025813;28;20630;-73
2020/12/19 17:58:27;;;;;;;22.43;10.47;;;;;;;;;;5039866;28;20576;-73
2020/12/19 18:01:31;;;;;;;21.20;11.50;;;;;;;;;;5034706;28;20651;-75
2020/12/19 18:04:35;;;;;;;19.73;11.40;;;;;;;;;;5023353;28;20883;-74
2020/12/19 18:07:39;;;;;;;21.93;10.93;;;;;;;;;;5011913;28;20553;-74
2020/12/19 18:10:44;;;;;;;21.93;11.20;;;;;;;;;;5034463;28;20631;-74